Time;durP1;ratioP1;P1;durP2;ratioP2;P2;SDS_P1;SDS_P2;PMS_P1;PMS_P2;Temp;Humidity;BMP_temperature;BMP_pressure;BME280_temperature;BME280_humidity;BME280_pressure;Samples;Min_cycle;Max_cycle;Signal;HPM_P1;HPM_P2
2022/01/13 00:01:48;;;;;;;84.87;21.10;;;2.20;99.90;;;;;;5042197;28;20232;-65
2022/01/13 00:04:17;;;;;;;201.30;22.80;;;2.10;99.90;;;;;;5042684;28;20611;-65
2022/01/13 00:06:47;;;;;;;102.60;20.83;;;2.20;99.90;;;;;;5046027;28;20189;-65
2022/01/13 00:09:17;;;;;;;141.07;21.23;;;2.20;99.90;;;;;;5046946;28;20189;-65
2022/01/13 00:11:47;;;;;;;200.23;23.27;;;2.20;99.90;;;;;;5045522;28;20276;-65
2022/01/13 00:17:25;;;;;;;96.27;20.17;;;2.10;99.90;;;;;;5027041;28;20216;-65
2022/01/13 00:20:10;;;;;;;101.57;20.10;;;2.10;99.90;;;;;;5043735;28;20565;-65
2022/01/13 00:25:52;;;;;;;166.93;21.63;;;2.00;99.90;;;;;;5046780;28;20607;-65
2022/01/13 00:28:21;;;;;;;106.27;20.60;;;2.00;99.90;;;;;;5042829;28;20192;-65
2022/01/13 00:30:53;;;;;;;138.77;20.90;;;2.00;99.90;;;;;;5044614;28;20656;-65
2022/01/13 00:33:25;;;;;;;142.80;20.23;;;2.10;99.90;;;;;;5043798;28;20231;-65
2022/01/13 00:35:54;;;;;;;145.60;21.90;;;2.10;99.90;;;;;;5044339;28;20779;-65
2022/01/13 00:38:25;;;;;;;162.57;21.30;;;2.10;99.90;;;;;;5044714;28;20224;-65
2022/01/13 00:40:54;;;;;;;191.83;21.93;;;2.00;99.90;;;;;;5041891;28;20302;-65
2022/01/13 00:43:22;;;;;;;160.47;22.50;;;2.10;99.90;;;;;;5044591;28;20254;-65
2022/01/13 00:45:51;;;;;;;180.87;23.53;;;2.00;99.90;;;;;;5039114;28;20767;-65
2022/01/13 00:48:20;;;;;;;192.07;20.73;;;2.00;99.90;;;;;;5043862;28;20596;-65
2022/01/13 00:50:49;;;;;;;123.97;21.00;;;2.00;99.90;;;;;;5041625;28;20729;-65
2022/01/13 00:53:18;;;;;;;128.60;20.90;;;2.00;99.90;;;;;;5044230;28;20658;-65
2022/01/13 00:55:58;;;;;;;148.30;21.27;;;2.00;99.90;;;;;;5040618;28;20209;-65
2022/01/13 00:58:27;;;;;;;101.90;18.43;;;2.00;99.90;;;;;;5038255;28;20224;-65
2022/01/13 01:00:56;;;;;;;89.67;19.30;;;1.90;99.90;;;;;;5041727;28;20240;-65
2022/01/13 01:03:26;;;;;;;96.53;19.33;;;2.00;99.90;;;;;;5041440;28;20200;-65
2022/01/13 01:05:55;;;;;;;88.33;19.40;;;2.00;99.90;;;;;;5044936;28;20611;-65
2022/01/13 01:08:25;;;;;;;110.63;19.13;;;1.90;99.90;;;;;;5041293;28;20196;-65
2022/01/13 01:10:56;;;;;;;114.60;18.30;;;1.90;99.90;;;;;;5043012;28;20668;-65
2022/01/13 01:13:28;;;;;;;107.00;20.40;;;1.80;99.90;;;;;;5037530;28;20192;-65
2022/01/13 01:16:00;;;;;;;126.30;21.07;;;1.80;99.90;;;;;;5046588;28;20280;-65
2022/01/13 01:18:36;;;;;;;174.73;21.97;;;1.80;99.90;;;;;;5045929;28;20208;-65
2022/01/13 01:21:33;;;;;;;155.03;21.90;;;1.80;99.90;;;;;;5045448;28;20719;-65
2022/01/13 01:26:59;;;;;;;149.57;22.70;;;1.80;99.90;;;;;;5031667;28;20223;-65
2022/01/13 01:29:33;;;;;;;142.97;22.67;;;1.80;99.90;;;;;;5043477;28;20194;-65
2022/01/13 01:32:08;;;;;;;156.20;23.30;;;1.80;99.90;;;;;;5042965;28;20200;-65
2022/01/13 01:34:54;;;;;;;146.20;21.77;;;1.80;99.90;;;;;;5044918;28;20224;-65
2022/01/13 01:37:26;;;;;;;183.33;23.20;;;1.80;99.90;;;;;;5039159;28;20563;-65
2022/01/13 01:39:56;;;;;;;130.77;22.47;;;1.80;99.90;;;;;;5048202;28;20292;-65
2022/01/13 01:42:27;;;;;;;128.53;21.30;;;1.80;99.90;;;;;;5047356;28;20286;-65
2022/01/13 01:44:58;;;;;;;101.70;19.30;;;1.80;99.90;;;;;;5046701;28;20502;-65
2022/01/13 01:47:29;;;;;;;85.97;18.57;;;1.80;99.90;;;;;;5049635;28;20203;-65
2022/01/13 01:49:59;;;;;;;118.57;20.10;;;1.70;99.90;;;;;;5048134;28;20549;-65
2022/01/13 01:52:29;;;;;;;102.37;20.50;;;1.70;99.90;;;;;;5047398;28;20283;-65
2022/01/13 01:54:57;;;;;;;136.17;22.17;;;1.70;99.90;;;;;;5042216;28;20660;-65
2022/01/13 01:57:27;;;;;;;120.63;20.47;;;1.70;99.90;;;;;;5048333;28;20276;-65
2022/01/13 01:59:55;;;;;;;85.70;20.37;;;1.60;99.90;;;;;;5048097;28;20215;-65
2022/01/13 02:02:26;;;;;;;129.23;22.43;;;1.60;99.90;;;;;;5044215;28;20660;-65
2022/01/13 02:04:55;;;;;;;72.30;19.90;;;1.70;99.90;;;;;;5048329;28;20235;-65
2022/01/13 02:07:23;;;;;;;131.47;21.87;;;1.70;99.90;;;;;;5046158;28;20280;-65
2022/01/13 02:09:53;;;;;;;86.37;21.60;;;1.70;99.90;;;;;;5044835;28;20746;-65
2022/01/13 02:12:33;;;;;;;131.97;21.37;;;1.70;99.90;;;;;;5044708;28;20562;-65
2022/01/13 02:15:29;;;;;;;149.90;22.23;;;1.70;99.90;;;;;;5028861;28;20215;-65
2022/01/13 02:18:00;;;;;;;132.23;23.17;;;1.70;99.90;;;;;;5048020;28;20283;-65
2022/01/13 02:20:44;;;;;;;109.00;21.90;;;1.70;99.90;;;;;;5044632;28;20211;-65
2022/01/13 02:23:12;;;;;;;120.07;21.13;;;1.70;99.90;;;;;;5046444;28;20201;-65
2022/01/13 02:25:41;;;;;;;117.67;21.63;;;1.80;99.90;;;;;;5047961;28;20207;-65
2022/01/13 02:28:09;;;;;;;126.80;22.50;;;1.80;99.90;;;;;;5043865;28;20201;-65
2022/01/13 02:30:37;;;;;;;129.17;21.93;;;1.70;99.90;;;;;;5047645;28;20200;-65
2022/01/13 02:33:06;;;;;;;101.07;19.43;;;1.70;99.90;;;;;;5044887;28;20237;-65
2022/01/13 02:35:36;;;;;;;116.20;19.47;;;1.60;99.90;;;;;;5046787;28;20717;-65
2022/01/13 02:38:11;;;;;;;117.67;20.00;;;1.50;99.90;;;;;;5047145;28;20254;-65
2022/01/13 02:40:40;;;;;;;112.17;19.43;;;1.50;99.90;;;;;;5042768;28;20206;-65
2022/01/13 02:43:09;;;;;;;78.27;19.07;;;1.40;99.90;;;;;;5047266;28;20279;-64
2022/01/13 02:45:38;;;;;;;82.33;19.07;;;1.40;99.90;;;;;;5047300;28;20255;-65
2022/01/13 02:48:28;;;;;;;86.97;18.43;;;1.30;99.90;;;;;;5046151;28;20205;-65
2022/01/13 02:50:56;;;;;;;137.50;20.30;;;1.30;99.90;;;;;;5047126;28;20216;-65
2022/01/13 02:53:27;;;;;;;72.87;19.53;;;1.30;99.90;;;;;;5045793;28;20192;-65
2022/01/13 02:56:04;;;;;;;165.77;20.40;;;1.40;99.90;;;;;;5045715;28;20193;-65
2022/01/13 02:58:33;;;;;;;138.53;19.97;;;1.40;99.90;;;;;;5042307;28;20196;-65
2022/01/13 03:01:03;;;;;;;74.43;19.13;;;1.40;99.90;;;;;;5046625;28;20682;-65
2022/01/13 03:03:34;;;;;;;117.30;20.10;;;1.40;99.90;;;;;;5030573;28;20189;-65
2022/01/13 03:06:07;;;;;;;124.47;21.83;;;1.40;99.90;;;;;;5048281;28;20296;-65
2022/01/13 03:08:39;;;;;;;114.97;21.03;;;1.50;99.90;;;;;;5045797;28;20204;-65
2022/01/13 03:11:08;;;;;;;140.20;21.10;;;1.40;99.90;;;;;;5046746;28;20479;-65
2022/01/13 03:13:36;;;;;;;118.53;20.43;;;1.30;99.90;;;;;;5048103;28;20196;-65
2022/01/13 03:16:09;;;;;;;126.10;20.17;;;1.30;99.90;;;;;;5047927;28;20202;-65
2022/01/13 03:18:39;;;;;;;130.40;20.80;;;1.30;99.90;;;;;;5040307;28;20283;-65
2022/01/13 03:21:08;;;;;;;122.93;19.30;;;1.30;99.90;;;;;;5048901;28;20271;-65
2022/01/13 03:23:38;;;;;;;96.70;19.07;;;1.30;99.90;;;;;;5047690;28;20761;-65
2022/01/13 03:26:07;;;;;;;95.10;19.03;;;1.30;99.90;;;;;;5047289;28;20238;-65
2022/01/13 03:28:41;;;;;;;94.40;18.53;;;1.30;99.90;;;;;;5038466;28;20205;-65
2022/01/13 03:31:09;;;;;;;126.50;20.67;;;1.30;99.90;;;;;;5046970;28;20553;-64
2022/01/13 03:33:38;;;;;;;102.00;19.23;;;1.30;99.90;;;;;;5047622;28;20207;-65
2022/01/13 03:36:06;;;;;;;112.83;19.00;;;1.30;99.90;;;;;;5047352;28;20244;-65
2022/01/13 03:38:37;;;;;;;91.87;19.23;;;1.30;99.90;;;;;;5040681;28;20224;-65
2022/01/13 03:41:05;;;;;;;99.73;19.97;;;1.30;99.90;;;;;;5044123;28;20204;-65
2022/01/13 03:43:36;;;;;;;155.80;21.13;;;1.30;99.90;;;;;;5043212;28;20653;-65
2022/01/13 03:46:05;;;;;;;162.90;20.53;;;1.20;99.90;;;;;;5045874;28;20197;-65
2022/01/13 03:48:39;;;;;;;140.13;20.53;;;1.20;99.90;;;;;;5047784;28;20204;-65
2022/01/13 03:51:08;;;;;;;125.47;19.50;;;1.20;99.90;;;;;;5047925;28;20663;-65
2022/01/13 03:54:10;;;;;;;83.60;17.43;;;1.30;99.90;;;;;;5023794;28;20323;-65
2022/01/13 03:57:23;;;;;;;109.10;19.03;;;1.30;99.90;;;;;;5024279;28;20296;-65
2022/01/13 04:00:30;;;;;;;83.77;19.17;;;1.20;99.90;;;;;;5014081;28;20228;-65
2022/01/13 04:03:00;;;;;;;129.97;18.70;;;1.20;99.90;;;;;;5039524;28;20247;-65
2022/01/13 04:05:28;;;;;;;120.93;19.07;;;1.20;99.90;;;;;;5040185;28;20201;-65
2022/01/13 04:07:57;;;;;;;93.57;18.87;;;1.20;99.90;;;;;;5046391;28;20204;-65
2022/01/13 04:11:17;;;;;;;157.90;19.63;;;1.20;99.90;;;;;;5041414;28;20429;-65
2022/01/13 04:13:51;;;;;;;90.87;19.70;;;1.20;99.90;;;;;;5040533;28;20247;-65
2022/01/13 04:16:21;;;;;;;121.13;19.03;;;1.20;99.90;;;;;;5043877;28;20247;-65
2022/01/13 04:18:52;;;;;;;102.50;18.33;;;1.20;99.90;;;;;;5045587;28;20207;-65
2022/01/13 04:21:23;;;;;;;139.23;19.47;;;1.20;99.90;;;;;;5046522;28;20205;-65
2022/01/13 04:23:53;;;;;;;118.57;19.00;;;1.20;99.90;;;;;;5043093;28;20217;-65
2022/01/13 04:26:28;;;;;;;138.67;18.80;;;1.20;99.90;;;;;;5044264;28;20193;-64
2022/01/13 04:29:03;;;;;;;113.40;17.57;;;1.20;99.90;;;;;;5044310;28;20635;-65
2022/01/13 04:31:32;;;;;;;99.37;17.33;;;1.20;99.90;;;;;;5044124;28;20200;-65
2022/01/13 04:34:02;;;;;;;113.10;19.00;;;1.20;99.90;;;;;;5044268;28;20201;-65
2022/01/13 04:36:31;;;;;;;137.10;19.37;;;1.10;99.90;;;;;;5043849;28;20208;-65
2022/01/13 04:39:00;;;;;;;91.70;18.90;;;1.10;99.90;;;;;;5043630;28;20295;-65
2022/01/13 04:41:32;;;;;;;90.67;17.73;;;1.10;99.90;;;;;;5044918;28;20288;-65
2022/01/13 04:44:01;;;;;;;142.93;18.47;;;1.10;99.90;;;;;;5042911;28;20208;-65
2022/01/13 04:46:30;;;;;;;121.30;18.73;;;1.10;99.90;;;;;;5042698;28;20280;-65
2022/01/13 04:48:59;;;;;;;141.47;19.00;;;1.10;99.90;;;;;;5045488;28;20196;-65
2022/01/13 04:51:29;;;;;;;108.53;18.87;;;1.10;99.90;;;;;;5044866;28;20232;-64
2022/01/13 04:53:58;;;;;;;163.70;19.60;;;1.10;99.90;;;;;;5045101;28;20632;-64
2022/01/13 04:56:30;;;;;;;113.27;18.13;;;1.10;99.90;;;;;;5040000;28;20208;-64
2022/01/13 04:58:59;;;;;;;139.77;19.53;;;1.00;99.90;;;;;;5042376;28;20240;-65
2022/01/13 05:01:27;;;;;;;135.00;18.60;;;1.00;99.90;;;;;;5038842;28;20196;-65
2022/01/13 05:03:58;;;;;;;132.80;18.70;;;1.10;99.90;;;;;;5042011;28;20208;-65
2022/01/13 05:06:26;;;;;;;199.13;19.50;;;1.10;99.90;;;;;;5040662;28;20228;-64
2022/01/13 05:08:56;;;;;;;107.93;19.67;;;1.00;99.90;;;;;;5037873;28;20197;-65
2022/01/13 05:11:25;;;;;;;125.17;18.47;;;1.00;99.90;;;;;;5044525;28;20220;-65
2022/01/13 05:13:54;;;;;;;147.13;19.17;;;1.00;99.90;;;;;;5046978;28;20205;-64
2022/01/13 05:16:27;;;;;;;182.40;20.50;;;1.00;99.90;;;;;;5048439;28;20204;-66
2022/01/13 05:19:08;;;;;;;132.13;18.93;;;1.10;99.90;;;;;;5046870;28;20226;-65
2022/01/13 05:21:55;;;;;;;125.47;19.13;;;1.10;99.90;;;;;;5050529;28;20206;-64
2022/01/13 05:24:25;;;;;;;106.33;20.00;;;1.10;99.90;;;;;;5045255;28;20304;-64
2022/01/13 05:26:53;;;;;;;143.33;19.13;;;1.20;99.90;;;;;;5048963;28;20197;-64
2022/01/13 05:29:22;;;;;;;165.17;20.10;;;1.10;99.90;;;;;;5048333;28;20205;-64
2022/01/13 05:31:51;;;;;;;142.57;20.87;;;1.20;99.90;;;;;;5046913;28;20192;-65
2022/01/13 05:34:20;;;;;;;101.63;19.20;;;1.20;99.90;;;;;;5047965;28;20200;-65
2022/01/13 05:37:08;;;;;;;145.43;18.63;;;1.20;99.90;;;;;;5050524;28;20205;-65
2022/01/13 05:39:39;;;;;;;212.77;21.07;;;1.20;99.90;;;;;;5047923;28;20284;-65
2022/01/13 05:42:07;;;;;;;137.77;18.90;;;1.20;99.90;;;;;;5047413;28;20192;-65
2022/01/13 05:44:38;;;;;;;217.30;21.87;;;1.20;99.90;;;;;;5041563;28;20237;-65
2022/01/13 05:47:09;;;;;;;175.10;19.83;;;1.10;99.90;;;;;;5046270;28;20231;-64
2022/01/13 05:49:40;;;;;;;158.37;19.27;;;1.10;99.90;;;;;;5045821;28;20750;-65
2022/01/13 05:52:09;;;;;;;113.70;19.43;;;1.10;99.90;;;;;;5047272;28;20230;-65
2022/01/13 05:54:40;;;;;;;146.87;18.47;;;1.10;99.90;;;;;;5045668;28;20218;-65
2022/01/13 05:57:09;;;;;;;161.23;20.33;;;1.10;99.90;;;;;;5042799;28;20197;-64
2022/01/13 05:59:37;;;;;;;134.50;19.63;;;1.10;99.90;;;;;;5041367;28;20201;-64
2022/01/13 06:02:06;;;;;;;268.23;22.50;;;1.20;99.90;;;;;;5044446;28;20251;-65
2022/01/13 06:05:12;;;;;;;132.63;18.03;;;1.10;99.90;;;;;;5046343;28;20257;-65
2022/01/13 06:08:01;;;;;;;168.20;18.87;;;1.10;99.90;;;;;;5042589;28;20189;-65
2022/01/13 06:10:30;;;;;;;238.77;21.17;;;1.00;99.90;;;;;;5044002;28;20207;-64
2022/01/13 06:12:59;;;;;;;125.23;17.00;;;1.00;99.90;;;;;;5048277;28;20234;-64
2022/01/13 06:15:28;;;;;;;307.87;22.00;;;1.00;99.90;;;;;;5040644;28;20225;-64
2022/01/13 06:17:57;;;;;;;252.73;22.03;;;1.00;99.90;;;;;;5039254;28;20200;-65
2022/01/13 06:20:25;;;;;;;170.97;21.00;;;1.00;99.90;;;;;;5040642;28;20195;-66
2022/01/13 06:22:54;;;;;;;275.73;21.83;;;1.00;99.90;;;;;;5046785;28;20296;-64
2022/01/13 06:25:22;;;;;;;292.07;23.47;;;0.90;99.90;;;;;;5044155;28;20862;-65
2022/01/13 06:27:52;;;;;;;334.77;21.57;;;1.00;99.90;;;;;;5047268;28;20290;-64
2022/01/13 06:30:41;;;;;;;159.00;21.43;;;0.90;99.90;;;;;;5046349;28;20205;-65
2022/01/13 06:33:09;;;;;;;338.53;23.40;;;0.80;99.90;;;;;;5035892;28;20180;-65
2022/01/13 06:35:38;;;;;;;163.07;19.20;;;0.90;99.90;;;;;;5026702;28;20290;-64
2022/01/13 06:38:07;;;;;;;156.70;20.10;;;0.80;99.90;;;;;;5046562;28;20193;-65
2022/01/13 06:40:35;;;;;;;215.70;21.87;;;0.80;99.90;;;;;;5045739;28;20281;-65
2022/01/13 06:43:05;;;;;;;345.70;42.30;;;0.80;99.90;;;;;;5044461;28;20717;-65
2022/01/13 06:45:34;;;;;;;281.07;22.17;;;0.70;99.90;;;;;;5041715;28;20201;-64
2022/01/13 06:48:02;;;;;;;149.73;18.67;;;0.70;99.90;;;;;;5045772;28;20261;-65
2022/01/13 06:50:31;;;;;;;264.53;60.23;;;0.70;99.90;;;;;;5045439;28;20659;-65
2022/01/13 06:52:59;;;;;;;93.47;18.70;;;0.70;99.90;;;;;;5048052;28;20195;-65
2022/01/13 06:55:28;;;;;;;181.63;33.47;;;0.70;99.90;;;;;;5043500;28;20191;-65
2022/01/13 06:57:56;;;;;;;118.93;19.53;;;0.70;99.90;;;;;;5043922;28;20235;-65
2022/01/13 07:00:26;;;;;;;174.30;19.80;;;0.70;99.90;;;;;;5044011;28;20268;-65
2022/01/13 07:02:58;;;;;;;125.60;18.43;;;0.70;99.90;;;;;;5045848;28;20212;-65
2022/01/13 07:05:26;;;;;;;250.17;23.00;;;0.80;99.90;;;;;;5045759;28;20298;-64
2022/01/13 07:07:55;;;;;;;195.67;20.90;;;0.70;99.90;;;;;;5043169;28;20705;-65
2022/01/13 07:10:27;;;;;;;158.60;22.67;;;0.70;99.90;;;;;;5046739;28;20192;-65
2022/01/13 07:12:55;;;;;;;272.57;23.73;;;0.70;99.90;;;;;;5055837;28;20438;-65
2022/01/13 07:15:31;;;;;;;205.47;23.07;;;0.70;99.90;;;;;;5041923;28;20212;-65
2022/01/13 07:18:00;;;;;;;121.17;21.13;;;0.70;99.90;;;;;;5046737;28;20239;-65
2022/01/13 07:20:28;;;;;;;206.67;22.80;;;0.70;99.90;;;;;;5046509;28;20271;-65
2022/01/13 07:22:57;;;;;;;157.60;21.70;;;0.70;99.90;;;;;;5048472;28;20420;-65
2022/01/13 07:25:26;;;;;;;198.23;24.80;;;0.70;99.90;;;;;;5045912;28;20745;-65
2022/01/13 07:27:55;;;;;;;350.63;99.27;;;0.70;99.90;;;;;;5026864;28;20201;-65
2022/01/13 07:30:24;;;;;;;240.17;29.87;;;0.70;99.90;;;;;;5041890;28;20208;-64
2022/01/13 07:32:54;;;;;;;306.43;46.00;;;0.60;99.90;;;;;;5041654;28;20196;-65
2022/01/13 07:35:22;;;;;;;229.63;37.67;;;0.60;99.90;;;;;;5047210;28;20244;-65
2022/01/13 07:37:51;;;;;;;312.90;59.57;;;0.60;99.90;;;;;;5040730;28;20263;-65
2022/01/13 07:40:19;;;;;;;176.97;61.67;;;0.60;99.90;;;;;;5041497;28;20250;-64
2022/01/13 07:42:48;;;;;;;216.07;27.63;;;0.60;99.90;;;;;;5043889;28;20217;-65
2022/01/13 07:45:18;;;;;;;165.93;26.90;;;0.60;99.90;;;;;;5046683;28;20221;-65
2022/01/13 07:47:47;;;;;;;228.77;33.57;;;0.60;99.90;;;;;;5044209;28;20192;-65
2022/01/13 07:50:17;;;;;;;241.37;42.50;;;0.60;99.90;;;;;;5044368;28;20188;-65
2022/01/13 07:52:45;;;;;;;173.67;44.67;;;0.60;99.90;;;;;;5041352;28;20297;-64
2022/01/13 07:55:14;;;;;;;262.00;40.60;;;0.70;99.90;;;;;;5037150;28;20620;-65
2022/01/13 07:57:43;;;;;;;161.97;28.67;;;0.70;99.90;;;;;;5036793;28;20201;-65
2022/01/13 08:00:14;;;;;;;199.70;33.40;;;0.70;99.90;;;;;;5037863;28;20200;-65
2022/01/13 08:02:42;;;;;;;168.90;32.90;;;0.70;99.90;;;;;;5025867;28;20225;-65
2022/01/13 08:05:11;;;;;;;203.40;32.73;;;0.70;99.90;;;;;;5038994;28;20209;-64
2022/01/13 08:07:41;;;;;;;208.80;26.23;;;0.70;99.90;;;;;;5038767;28;20367;-65
2022/01/13 08:10:10;;;;;;;116.40;23.90;;;0.70;99.90;;;;;;5042519;28;20217;-65
2022/01/13 08:12:39;;;;;;;151.83;28.03;;;0.60;99.90;;;;;;5035452;28;20204;-65
2022/01/13 08:15:13;;;;;;;79.93;22.53;;;0.60;99.90;;;;;;5037160;28;20225;-65
2022/01/13 08:20:24;;;;;;;184.97;27.23;;;0.70;99.90;;;;;;5029085;28;20220;-65
2022/01/13 08:22:54;;;;;;;143.20;29.70;;;0.70;99.90;;;;;;5042607;28;20204;-65
2022/01/13 08:25:25;;;;;;;273.70;89.97;;;0.70;99.90;;;;;;5040179;28;20296;-65
2022/01/13 08:27:54;;;;;;;110.20;42.23;;;0.80;99.90;;;;;;5036696;28;20292;-65
2022/01/13 08:30:23;;;;;;;138.40;36.57;;;0.80;99.90;;;;;;5038777;28;20413;-64
2022/01/13 08:32:51;;;;;;;126.83;40.80;;;0.80;99.90;;;;;;5036402;28;20205;-65
2022/01/13 08:35:20;;;;;;;179.97;59.50;;;0.80;99.90;;;;;;5042593;28;20224;-65
2022/01/13 08:37:49;;;;;;;135.03;43.50;;;0.80;99.90;;;;;;5041913;28;20213;-65
2022/01/13 08:40:18;;;;;;;214.23;63.40;;;0.80;99.90;;;;;;5042402;28;20188;-65
2022/01/13 08:42:47;;;;;;;134.53;34.77;;;0.80;99.90;;;;;;5032366;28;20193;-65
2022/01/13 08:45:16;;;;;;;164.07;67.03;;;0.80;99.90;;;;;;5042472;28;20217;-65
2022/01/13 08:47:44;;;;;;;124.73;32.73;;;0.90;99.90;;;;;;5037627;28;20572;-65
2022/01/13 08:50:13;;;;;;;114.20;33.30;;;0.90;99.90;;;;;;5041669;28;20224;-65
2022/01/13 08:52:44;;;;;;;79.53;23.20;;;0.90;99.90;;;;;;5039218;28;20220;-65
2022/01/13 08:55:13;;;;;;;124.97;41.77;;;0.90;99.90;;;;;;5032896;28;20268;-65
2022/01/13 08:57:43;;;;;;;104.40;26.93;;;0.90;99.90;;;;;;5037833;28;20212;-65
2022/01/13 09:00:12;;;;;;;109.50;25.37;;;0.90;99.90;;;;;;5038753;28;20299;-65
2022/01/13 09:02:42;;;;;;;102.10;22.30;;;0.90;99.90;;;;;;5037293;28;22192;-65
2022/01/13 09:05:13;;;;;;;85.50;25.40;;;1.00;99.90;;;;;;5046124;28;20231;-65
2022/01/13 09:07:42;;;;;;;120.43;32.10;;;0.90;99.90;;;;;;5045049;28;20193;-65
2022/01/13 09:10:12;;;;;;;96.10;32.03;;;0.90;99.90;;;;;;5042307;28;20200;-65
2022/01/13 09:12:43;;;;;;;115.87;31.90;;;0.90;99.90;;;;;;5039032;28;20204;-65
2022/01/13 09:15:17;;;;;;;127.80;46.87;;;1.00;99.90;;;;;;5027890;28;20672;-64
2022/01/13 09:17:51;;;;;;;104.23;32.40;;;1.10;99.90;;;;;;5040324;28;20204;-65
2022/01/13 09:20:20;;;;;;;110.70;25.20;;;1.20;99.90;;;;;;5041252;28;20203;-65
2022/01/13 09:22:49;;;;;;;97.17;28.50;;;1.20;99.90;;;;;;5039200;28;20197;-65
2022/01/13 09:25:18;;;;;;;140.23;30.50;;;1.20;99.90;;;;;;5044009;28;20426;-65
2022/01/13 09:27:48;;;;;;;122.00;24.30;;;1.30;99.90;;;;;;5041281;28;20584;-65
2022/01/13 09:30:19;;;;;;;112.50;26.17;;;1.30;99.90;;;;;;5042142;28;20218;-65
2022/01/13 09:32:48;;;;;;;125.47;29.37;;;1.30;99.90;;;;;;5040435;28;20201;-64
2022/01/13 09:35:16;;;;;;;73.17;24.90;;;1.30;99.90;;;;;;5038143;28;20225;-65
2022/01/13 09:37:45;;;;;;;78.60;22.37;;;1.40;99.90;;;;;;5038925;28;20287;-65
2022/01/13 09:40:15;;;;;;;82.80;23.07;;;1.50;99.90;;;;;;5038987;28;20212;-64
2022/01/13 09:42:45;;;;;;;76.90;25.30;;;1.60;99.90;;;;;;5035424;28;20209;-65
2022/01/13 09:45:17;;;;;;;86.90;24.97;;;1.60;99.90;;;;;;5038755;28;20228;-65
2022/01/13 09:47:46;;;;;;;96.00;26.23;;;1.60;99.90;;;;;;5038044;28;20185;-65
2022/01/13 09:50:18;;;;;;;77.80;24.93;;;1.80;99.90;;;;;;5038293;28;20671;-65
2022/01/13 09:52:48;;;;;;;64.30;22.70;;;1.90;99.90;;;;;;5035899;28;20302;-65
2022/01/13 09:55:17;;;;;;;72.03;21.70;;;1.90;99.90;;;;;;5040577;28;20688;-65
2022/01/13 09:57:48;;;;;;;101.17;24.47;;;2.00;99.90;;;;;;5033023;28;20208;-64
2022/01/13 10:00:20;;;;;;;71.60;21.30;;;1.90;99.90;;;;;;5044240;28;20684;-65
2022/01/13 10:02:49;;;;;;;65.20;21.30;;;1.90;99.90;;;;;;5042705;28;20575;-65
2022/01/13 10:05:19;;;;;;;69.63;22.57;;;1.90;99.90;;;;;;5046434;28;20209;-65
2022/01/13 10:07:50;;;;;;;66.00;22.23;;;2.00;99.90;;;;;;5044749;28;20595;-65
2022/01/13 10:10:27;;;;;;;73.60;22.33;;;2.10;99.90;;;;;;5047860;28;20204;-65
2022/01/13 10:13:04;;;;;;;67.70;22.60;;;2.20;99.90;;;;;;5046791;28;20197;-65
2022/01/13 10:18:40;;;;;;;74.97;22.70;;;2.30;99.90;;;;;;5040556;28;20198;-65
2022/01/13 10:21:10;;;;;;;75.60;23.40;;;2.30;99.90;;;;;;5043155;28;20236;-65
2022/01/13 10:23:59;;;;;;;67.27;22.53;;;2.30;99.90;;;;;;5043017;28;20781;-65
2022/01/13 10:26:28;;;;;;;80.33;22.83;;;2.30;99.90;;;;;;5045572;28;20201;-65
2022/01/13 10:28:57;;;;;;;63.47;22.53;;;2.40;99.90;;;;;;5044899;28;20223;-65
2022/01/13 10:31:45;;;;;;;76.17;22.90;;;2.30;99.90;;;;;;5043854;28;20602;-65
2022/01/13 10:34:19;;;;;;;68.20;22.00;;;2.40;99.90;;;;;;5028600;28;20235;-65
2022/01/13 10:37:03;;;;;;;71.43;22.80;;;2.40;99.90;;;;;;5047168;28;20224;-65
2022/01/13 10:39:53;;;;;;;76.97;22.27;;;2.40;99.90;;;;;;5041915;28;20846;-65
2022/01/13 10:45:29;;;;;;;73.40;21.17;;;2.50;99.90;;;;;;5042679;28;20664;-65
2022/01/13 10:48:03;;;;;;;67.23;22.03;;;2.50;99.90;;;;;;5048073;28;20774;-65
2022/01/13 10:50:34;;;;;;;61.97;21.63;;;2.50;99.90;;;;;;5047575;28;20228;-65
2022/01/13 10:53:05;;;;;;;66.50;22.43;;;2.60;99.90;;;;;;5042057;28;20208;-65
2022/01/13 10:55:41;;;;;;;77.43;23.07;;;2.60;99.90;;;;;;5042150;28;20549;-65
2022/01/13 10:58:13;;;;;;;62.33;21.67;;;2.70;99.90;;;;;;5038614;28;20583;-65
2022/01/13 11:00:43;;;;;;;73.30;23.33;;;2.70;99.90;;;;;;5043065;28;20201;-65
2022/01/13 11:03:16;;;;;;;79.23;21.87;;;2.70;99.90;;;;;;5051568;28;20879;-65
2022/01/13 11:05:48;;;;;;;77.17;22.10;;;2.70;99.90;;;;;;5038732;28;21174;-65
2022/01/13 11:08:30;;;;;;;73.73;22.67;;;2.80;99.90;;;;;;5041546;28;20208;-65
2022/01/13 11:11:03;;;;;;;70.23;23.70;;;2.90;99.90;;;;;;5037184;28;20254;-65
2022/01/13 11:13:36;;;;;;;64.37;21.67;;;2.90;99.90;;;;;;5043034;28;20255;-65
2022/01/13 11:16:06;;;;;;;86.87;20.80;;;3.00;99.90;;;;;;5030076;28;20682;-65
2022/01/13 11:18:35;;;;;;;73.23;21.73;;;3.00;99.90;;;;;;5044576;28;20296;-65
2022/01/13 11:21:04;;;;;;;75.60;21.53;;;3.00;99.90;;;;;;5044462;28;20204;-65
2022/01/13 11:23:34;;;;;;;77.80;22.00;;;3.10;99.90;;;;;;5045986;28;20706;-65
2022/01/13 11:26:03;;;;;;;73.63;21.03;;;3.10;99.90;;;;;;5043855;28;20716;-65
2022/01/13 11:28:31;;;;;;;58.57;20.87;;;3.10;99.90;;;;;;5047033;28;20193;-65
2022/01/13 11:31:01;;;;;;;58.57;20.23;;;3.20;99.90;;;;;;5042461;28;20201;-65
2022/01/13 11:33:29;;;;;;;59.80;20.03;;;3.30;99.90;;;;;;5043930;28;20220;-65
2022/01/13 11:36:00;;;;;;;62.60;18.93;;;3.30;99.90;;;;;;5042757;28;20248;-65
2022/01/13 11:38:32;;;;;;;66.27;20.23;;;3.30;99.90;;;;;;5043407;28;20623;-65
2022/01/13 11:41:02;;;;;;;62.10;20.17;;;3.40;99.90;;;;;;5045456;28;20675;-65
2022/01/13 11:43:36;;;;;;;77.73;25.77;;;3.40;99.90;;;;;;5044156;28;20205;-65
2022/01/13 11:46:21;;;;;;;82.30;22.60;;;3.30;99.90;;;;;;5041522;28;20212;-65
2022/01/13 11:49:00;;;;;;;53.67;18.80;;;3.30;99.90;;;;;;5041384;28;20219;-65
2022/01/13 11:51:41;;;;;;;61.27;20.90;;;3.30;99.90;;;;;;5045077;28;20259;-65
2022/01/13 11:54:11;;;;;;;59.90;21.83;;;3.30;99.90;;;;;;5041610;28;20208;-65
2022/01/13 11:57:14;;;;;;;92.93;25.37;;;3.40;99.90;;;;;;5059050;28;20216;-65
2022/01/13 12:00:26;;;;;;;57.20;20.33;;;3.50;99.90;;;;;;5043604;28;20234;-65
2022/01/13 12:03:32;;;;;;;76.87;28.03;;;3.50;99.90;;;;;;5042612;28;20201;-65
2022/01/13 12:06:43;;;;;;;70.90;22.50;;;3.50;99.90;;;;;;5045136;28;20255;-65
2022/01/13 12:09:13;;;;;;;68.73;21.50;;;3.60;99.90;;;;;;5037133;28;20227;-65
2022/01/13 12:11:45;;;;;;;94.73;27.57;;;3.60;99.90;;;;;;5042420;28;20276;-65
2022/01/13 12:14:37;;;;;;;69.03;21.63;;;3.60;99.90;;;;;;5043352;28;20196;-65
2022/01/13 12:17:19;;;;;;;54.10;21.00;;;3.60;99.90;;;;;;5040457;28;20660;-65
2022/01/13 12:19:51;;;;;;;62.83;22.47;;;3.60;99.90;;;;;;5041609;28;20232;-65
2022/01/13 12:22:40;;;;;;;64.47;22.70;;;3.70;99.90;;;;;;5045513;28;20545;-65
2022/01/13 12:25:12;;;;;;;68.73;21.03;;;3.80;99.90;;;;;;5046807;28;20680;-65
2022/01/13 12:27:50;;;;;;;71.70;21.47;;;3.80;99.90;;;;;;5044589;28;20208;-65
2022/01/13 12:30:25;;;;;;;62.93;20.80;;;3.90;99.90;;;;;;5046363;28;20204;-65
2022/01/13 12:32:58;;;;;;;77.67;28.03;;;3.90;99.90;;;;;;5041124;28;20299;-65
2022/01/13 12:35:41;;;;;;;76.43;21.63;;;3.90;99.90;;;;;;5040773;28;20763;-66
2022/01/13 12:38:13;;;;;;;59.77;21.60;;;3.90;99.90;;;;;;5044027;28;20268;-65
2022/01/13 12:40:48;;;;;;;62.27;19.77;;;3.80;99.90;;;;;;5041387;28;20215;-65
2022/01/13 12:46:08;;;;;;;72.60;19.87;;;3.90;99.90;;;;;;5040477;28;20204;-66
2022/01/13 12:48:40;;;;;;;74.10;23.17;;;3.80;99.90;;;;;;5043029;28;20220;-65
2022/01/13 12:51:14;;;;;;;75.90;25.00;;;3.80;99.90;;;;;;5041048;28;20280;-65
2022/01/13 12:53:45;;;;;;;65.50;20.20;;;3.90;99.90;;;;;;5042275;28;20197;-65
2022/01/13 12:56:16;;;;;;;65.30;22.90;;;3.90;99.90;;;;;;5043109;28;20288;-65
2022/01/13 12:58:47;;;;;;;75.53;21.57;;;3.90;99.90;;;;;;5043261;28;20228;-65
2022/01/13 13:01:17;;;;;;;128.53;50.40;;;4.00;99.90;;;;;;5040841;28;20239;-65
2022/01/13 13:03:59;;;;;;;78.23;21.50;;;4.00;99.90;;;;;;5045332;28;20686;-65
2022/01/13 13:06:31;;;;;;;59.27;21.23;;;4.00;99.90;;;;;;5041261;28;20701;-65
2022/01/13 13:09:06;;;;;;;92.87;24.00;;;3.90;99.90;;;;;;5041550;28;20196;-65
2022/01/13 13:11:39;;;;;;;147.80;63.17;;;3.90;99.90;;;;;;5040443;28;20847;-65
2022/01/13 13:14:15;;;;;;;124.63;49.33;;;3.90;99.90;;;;;;5046558;28;20205;-65
2022/01/13 13:16:43;;;;;;;83.30;24.37;;;3.90;99.90;;;;;;5040804;28;20290;-65
2022/01/13 13:19:12;;;;;;;91.67;25.87;;;4.00;99.90;;;;;;5042826;28;20683;-65